Welcome to our Virtual Airline
Sign-in:

Flight MFC50851

  • Submitted By: Georg Werderitsch
  • Departure Airport: Moose Run Airstrip (AK55)
  • Arrival Airport: Kenai Mun (PAEN)
  • Aircraft: BELL 206 (M2061MM)
  • Flight Time: 00.30.02
  • Date Submitted: 2019/04/02
  • Route: STOP-OVER AT ROTOR AIR (1AK4), STERLING AIR PARK (40AK), DUTCH LANDING STRIP (88AK), LAKEWOOD AIRSTRIP (53AK), DAHLER HOMESTEAD (7AK5)
  • Status: Accepted
Flight Details
Gross Revenue:
(10 load / $ 25.00 per unit
$ 250.00
Fuel Cost:
(39.0089 fuel used @ 5.1 / unit)
$ 198.95

Additional Log Information:

View Log

FS[16:03] ----- Flight Opened -----
FS[16:03] Cigar Box - 1.1.4.0
FS[16:03] FS: FSX
FS[16:03] FSUIPC: v4,973
FS[16:03] Flight Number: MFC50851
FS[16:03] FS Aircraft: Bell 206B JetRanger N2062MM BWEP
FS[16:03] FS Model: helicopter
FS[16:03] FS Type: JetRanger
FS[16:03] Departure: AK55
FS[16:03] Arrival: PAEN
FS[16:03] Flight Level: 2500
FS[16:03] Flight Type: H
FS[16:03] Passengers: 10
FS[16:03] FOB: 610 lbs
FS[16:03] Gate: n/a
FS[16:03] NOTE: Parking Brake Ignored
FS[16:03] Crash Detection: Disabled
FS[16:03] Crash Detection Aircraft: Disabled
FS[16:03] Engines: 1 Helo
FS[16:03] NOTE: Boarding has started
FS[16:03] Light Data: Navigation ON
FS[16:03] Light Data: Beacon ON
FS[16:03] Light Data: Strobe lights ON
FS[16:03] Main Door Closed
FS[16:04] COM1: 128.30
FS[16:04] COM2: 127.80
FS[16:04] Transponder: 1200
FS[16:04] NAV1: 113.70
FS[16:04] NAV2: 110.60
FS[16:04] ADF1: 284.0
FS[16:04] ADF2: 240.0
FS[16:04] Navigation Mode: NAV
FS[16:04] Engine 1: Started
FS[16:05] NOTE: Taxi started
FS[16:05] NOTE: ----- TAKE OFF -----
FS[16:05] GS: 31 knots
FS[16:05] TAS: 30 knots
FS[16:05] IAS: 29 knots
FS[16:05] VS: 490 fpm
FS[16:05] FOB: 607 lbs
FS[16:05] Heading: 8°
FS[16:05] Pitch: 10°
FS[16:05] Bank: 0°
FS[16:05] Aircraft Weight: 2707,44 lbs
FS[16:05] Nearest Airport: AK55
FS[16:05] Distance: 0,12 miles
FS[16:05] Runway: ???
FS[16:05] Ground Surface: Urban
FS[16:05] Ground Condition: Normal
FS[16:05] NOTE: Weather Report
FS[16:05] Wind Heading: 340°
FS[16:05] Wind Speed: 0 knots
FS[16:05] OAT: 14° C
FS[16:05] TAT: 14° C
FS[16:05] Precipitation: None
FS[16:05] Dew Point: 4° C
FS[16:05] Visibility: 62 miles
FS[16:05] METAR: No METAR available for AK55.
FS[16:05] NOTE: Climb started
FS[16:05] View Mode: Virtual Cockpit
FS[16:07] NOTE: ----- LANDED -----
FS[16:07] Landing Rate: -13,84 fpm
FS[16:07] GS: 0 knots
FS[16:07] TAS: 1 knots
FS[16:07] IAS: 1 knots
FS[16:07] VS: -13 fpm
FS[16:07] FOB: 599 lbs
FS[16:07] Heading: 54°
FS[16:07] Pitch: 4°
FS[16:07] Bank: -1°
FS[16:07] Aircraft Weight: 2699,71 lbs
FS[16:07] Nearest Airport: 1AK4
FS[16:07] Distance: 0,18 miles
FS[16:07] Runway: ???
FS[16:07] Ground Surface:
FS[16:07] Ground Condition: Normal
FS[16:07] NOTE: Weather Report
FS[16:07] Wind Heading: 340°
FS[16:07] Wind Speed: 0 knots
FS[16:07] OAT: 14° C
FS[16:07] TAT: 14° C
FS[16:07] Precipitation: None
FS[16:07] Dew Point: 4° C
FS[16:07] Visibility: 62 miles
FS[16:07] METAR: PAEN 021353Z AUTO 00000KT 1/2SM FZFG VV002 M04/M06 A3019 RMK AO2 SLP227 T10391056 TSNO
FS[16:07] View Mode: Virtual Cockpit
FS[16:07] NOTE: Taxi started
FS[16:08] Engine 1: Stopped
FS[16:08] Engine 1: Started
FS[16:09] View Mode: Virtual Cockpit
FS[16:14] NOTE: ----- LANDED -----
FS[16:14] Landing Rate: -107,65 fpm
FS[16:14] GS: 5 knots
FS[16:14] TAS: 6 knots
FS[16:14] IAS: 6 knots
FS[16:14] VS: -109 fpm
FS[16:14] FOB: 582 lbs
FS[16:14] Heading: 33°
FS[16:14] Pitch: 5°
FS[16:14] Bank: 0°
FS[16:14] Aircraft Weight: 2682,48 lbs
FS[16:14] Nearest Airport: 40AK
FS[16:14] Distance: 0,33 miles
FS[16:14] Runway: ???
FS[16:14] Ground Surface: Urban
FS[16:14] Ground Condition: Normal
FS[16:14] NOTE: Weather Report
FS[16:14] Wind Heading: 340°
FS[16:14] Wind Speed: 0 knots
FS[16:14] OAT: 14° C
FS[16:14] TAT: 14° C
FS[16:14] Precipitation: None
FS[16:14] Dew Point: 4° C
FS[16:14] Visibility: 62 miles
FS[16:14] METAR: PAEN 021353Z AUTO 00000KT 1/2SM FZFG VV002 M04/M06 A3019 RMK AO2 SLP227 T10391056 TSNO
FS[16:14] View Mode: Virtual Cockpit
FS[16:14] Engine 1: Stopped
FS[16:14] Engine 1: Started
FS[16:16] View Mode: Virtual Cockpit
FS[16:18] NOTE: ----- LANDED -----
FS[16:18] Landing Rate: -69,97 fpm
FS[16:18] GS: 1 knots
FS[16:18] TAS: 0 knots
FS[16:18] IAS: 0 knots
FS[16:18] VS: -71 fpm
FS[16:18] FOB: 570 lbs
FS[16:18] Heading: 267°
FS[16:18] Pitch: 0°
FS[16:18] Bank: 0°
FS[16:18] Aircraft Weight: 2670,56 lbs
FS[16:18] Nearest Airport: 88AK
FS[16:18] Distance: 0,07 miles
FS[16:18] Runway: ???
FS[16:18] Ground Surface: Urban
FS[16:18] Ground Condition: Normal
FS[16:18] NOTE: Weather Report
FS[16:18] Wind Heading: 340°
FS[16:18] Wind Speed: 0 knots
FS[16:18] OAT: 14° C
FS[16:18] TAT: 14° C
FS[16:18] Precipitation: None
FS[16:18] Dew Point: 4° C
FS[16:18] Visibility: 62 miles
FS[16:18] METAR: PAEN 021353Z AUTO 00000KT 1/2SM FZFG VV002 M04/M06 A3019 RMK AO2 SLP227 T10391056 TSNO
FS[16:18] View Mode: Virtual Cockpit
FS[16:18] Engine 1: Stopped
FS[16:18] Engine 1: Started
FS[16:19] View Mode: Virtual Cockpit
FS[16:21] NOTE: ----- LANDED -----
FS[16:21] Landing Rate: -188,39 fpm
FS[16:21] GS: 0 knots
FS[16:21] TAS: 1 knots
FS[16:21] IAS: 1 knots
FS[16:21] VS: -183 fpm
FS[16:21] FOB: 562 lbs
FS[16:21] Heading: 176°
FS[16:21] Pitch: 4°
FS[16:21] Bank: 2°
FS[16:21] Aircraft Weight: 2662,64 lbs
FS[16:21] Nearest Airport: 53AK
FS[16:21] Distance: 0,08 miles
FS[16:21] Runway: ???
FS[16:21] Ground Surface: Forest
FS[16:21] Ground Condition: Normal
FS[16:21] NOTE: Weather Report
FS[16:21] Wind Heading: 340°
FS[16:21] Wind Speed: 0 knots
FS[16:21] OAT: 14° C
FS[16:21] TAT: 14° C
FS[16:21] Precipitation: None
FS[16:21] Dew Point: 4° C
FS[16:21] Visibility: 62 miles
FS[16:21] METAR: PAEN 021353Z AUTO 00000KT 1/2SM FZFG VV002 M04/M06 A3019 RMK AO2 SLP227 T10391056 TSNO
FS[16:21] View Mode: Virtual Cockpit
FS[16:21] Engine 1: Stopped
FS[16:21] Engine 1: Started
FS[16:21] View Mode: Virtual Cockpit
FS[16:25] NOTE: ----- LANDED -----
FS[16:25] Landing Rate: -101,50 fpm
FS[16:25] GS: 1 knots
FS[16:25] TAS: 2 knots
FS[16:25] IAS: 2 knots
FS[16:25] VS: -99 fpm
FS[16:25] FOB: 551 lbs
FS[16:25] Heading: 222°
FS[16:25] Pitch: 4°
FS[16:25] Bank: 0°
FS[16:25] Aircraft Weight: 2652,04 lbs
FS[16:25] Nearest Airport: 7AK5
FS[16:25] Distance: 0,00 miles
FS[16:25] Runway: ???
FS[16:25] Ground Surface: Urban
FS[16:25] Ground Condition: Normal
FS[16:25] NOTE: Weather Report
FS[16:25] Wind Heading: 340°
FS[16:25] Wind Speed: 0 knots
FS[16:25] OAT: 14° C
FS[16:25] TAT: 14° C
FS[16:25] Precipitation: None
FS[16:25] Dew Point: 4° C
FS[16:25] Visibility: 62 miles
FS[16:25] METAR: PAEN 021353Z AUTO 00000KT 1/2SM FZFG VV002 M04/M06 A3019 RMK AO2 SLP227 T10391056 TSNO
FS[16:25] View Mode: Virtual Cockpit
FS[16:25] Engine 1: Stopped
FS[16:25] Engine 1: Started
FS[16:25] View Mode: Virtual Cockpit
FS[16:33] NOTE: ----- LANDED -----
FS[16:33] Landing Rate: -34,60 fpm
FS[16:33] GS: 0 knots
FS[16:33] TAS: 0 knots
FS[16:33] IAS: 0 knots
FS[16:33] VS: -33 fpm
FS[16:33] FOB: 525 lbs
FS[16:33] Heading: 124°
FS[16:33] Pitch: 0°
FS[16:33] Bank: -2°
FS[16:33] Aircraft Weight: 2625,91 lbs
FS[16:33] Nearest Airport: PAEN
FS[16:33] Distance: 0,24 miles
FS[16:33] Runway: ???
FS[16:33] Ground Surface: Asphalt
FS[16:33] Ground Condition: Normal
FS[16:33] NOTE: Weather Report
FS[16:33] Wind Heading: 340°
FS[16:33] Wind Speed: 0 knots
FS[16:33] OAT: 14° C
FS[16:33] TAT: 14° C
FS[16:33] Precipitation: None
FS[16:33] Dew Point: 4° C
FS[16:33] Visibility: 62 miles
FS[16:33] METAR: PAEN 021353Z AUTO 00000KT 1/2SM FZFG VV002 M04/M06 A3019 RMK AO2 SLP227 T10391056 TSNO
FS[16:33] View Mode: Virtual Cockpit
FS[16:34] Gate: 13 - PAEN
FS[16:34] NOTE: Flight Completed
FS[16:34] FS Aircraft: Bell 206B JetRanger N2062MM BWEP
FS[16:34] FS Model: helicopter
FS[16:34] FS Type: JetRanger
FS[16:34] FOB: 523 lbs
FS[16:34] Fuel Used: 86 lbs
FS[16:34] Flight Time: 00:30:02
FS[16:34] Flight Time (Dawn): 00:00:00
FS[16:34] Flight Time (Day): 00:30:02
FS[16:34] Flight Time (Dusk): 00:00:00
FS[16:34] Flight Time (Night): 00:00:00
FS[16:34] Total Landings: 6
FS[16:34] MaxSim Rate: 0x
FS[16:34] Cigar Box - 1.1.4.0
FS[16:34] ----- Flight Closed -----

Comments

Commenter Comment
Georg Werderitsch Hi , wird jede Landung bewertet?
Georg Werderitsch warum wird die Landerate - 13,87 nicht gewertet? wen ich bei den Stopps eine Landerate von über -600 habe wird die auch nicht bewertet? why is the landing rate - 13.87 not counted? Who I have a landing rate of over -600 at the stops is also not rated?

Route Map